sensor_id;sensor_type;location;lat;lon;timestamp;P1;durP1;ratioP1;P2;durP2;ratioP2
33862;SDS011;20158;51.436;-2.742;2023-02-28T00:00:12;7.43;;;1.98;;
33862;SDS011;20158;51.436;-2.742;2023-02-28T00:02:40;4.63;;;1.77;;
33862;SDS011;20158;51.436;-2.742;2023-02-28T00:05:07;2.65;;;1.90;;
33862;SDS011;20158;51.436;-2.742;2023-02-28T00:07:34;3.38;;;1.52;;
33862;SDS011;20158;51.436;-2.742;2023-02-28T00:10:01;2.63;;;1.88;;
33862;SDS011;20158;51.436;-2.742;2023-02-28T00:12:28;5.07;;;2.25;;
33862;SDS011;20158;51.436;-2.742;2023-02-28T00:14:54;5.97;;;2.35;;
33862;SDS011;20158;51.436;-2.742;2023-02-28T00:17:20;2.67;;;1.70;;
33862;SDS011;20158;51.436;-2.742;2023-02-28T00:19:49;4.22;;;1.95;;
33862;SDS011;20158;51.436;-2.742;2023-02-28T00:22:16;6.43;;;2.33;;
33862;SDS011;20158;51.436;-2.742;2023-02-28T00:24:43;4.32;;;2.53;;
33862;SDS011;20158;51.436;-2.742;2023-02-28T00:27:10;3.97;;;1.98;;
33862;SDS011;20158;51.436;-2.742;2023-02-28T00:29:36;4.60;;;2.60;;
33862;SDS011;20158;51.436;-2.742;2023-02-28T00:32:03;2.97;;;2.20;;
33862;SDS011;20158;51.436;-2.742;2023-02-28T00:34:29;8.43;;;2.25;;
33862;SDS011;20158;51.436;-2.742;2023-02-28T00:36:55;3.13;;;2.03;;
33862;SDS011;20158;51.436;-2.742;2023-02-28T00:39:21;6.07;;;2.17;;
33862;SDS011;20158;51.436;-2.742;2023-02-28T00:41:47;6.25;;;2.15;;
33862;SDS011;20158;51.436;-2.742;2023-02-28T00:44:13;5.57;;;2.22;;
33862;SDS011;20158;51.436;-2.742;2023-02-28T00:46:39;5.05;;;3.15;;
33862;SDS011;20158;51.436;-2.742;2023-02-28T00:49:05;5.82;;;3.15;;
33862;SDS011;20158;51.436;-2.742;2023-02-28T00:51:31;6.55;;;2.28;;
33862;SDS011;20158;51.436;-2.742;2023-02-28T00:53:57;4.88;;;2.05;;
33862;SDS011;20158;51.436;-2.742;2023-02-28T00:56:23;5.93;;;2.35;;
33862;SDS011;20158;51.436;-2.742;2023-02-28T00:58:49;6.53;;;2.30;;
33862;SDS011;20158;51.436;-2.742;2023-02-28T01:01:14;4.03;;;2.28;;
33862;SDS011;20158;51.436;-2.742;2023-02-28T01:03:40;3.50;;;2.22;;
33862;SDS011;20158;51.436;-2.742;2023-02-28T01:06:07;4.65;;;2.08;;
33862;SDS011;20158;51.436;-2.742;2023-02-28T01:08:33;3.95;;;2.22;;
33862;SDS011;20158;51.436;-2.742;2023-02-28T01:11:06;4.43;;;2.03;;
33862;SDS011;20158;51.436;-2.742;2023-02-28T01:13:39;6.80;;;2.40;;
33862;SDS011;20158;51.436;-2.742;2023-02-28T01:16:06;7.70;;;2.13;;
33862;SDS011;20158;51.436;-2.742;2023-02-28T01:18:33;4.93;;;2.80;;
33862;SDS011;20158;51.436;-2.742;2023-02-28T01:21:08;6.57;;;2.17;;
33862;SDS011;20158;51.436;-2.742;2023-02-28T01:23:39;2.80;;;1.80;;
33862;SDS011;20158;51.436;-2.742;2023-02-28T01:26:12;2.80;;;1.95;;
33862;SDS011;20158;51.436;-2.742;2023-02-28T01:28:43;4.97;;;2.00;;
33862;SDS011;20158;51.436;-2.742;2023-02-28T01:31:09;2.17;;;1.70;;
33862;SDS011;20158;51.436;-2.742;2023-02-28T01:33:37;3.05;;;1.92;;
33862;SDS011;20158;51.436;-2.742;2023-02-28T01:36:08;2.17;;;1.55;;
33862;SDS011;20158;51.436;-2.742;2023-02-28T01:38:40;3.63;;;1.50;;
33862;SDS011;20158;51.436;-2.742;2023-02-28T01:41:06;2.80;;;1.65;;
33862;SDS011;20158;51.436;-2.742;2023-02-28T01:43:52;3.33;;;1.77;;
33862;SDS011;20158;51.436;-2.742;2023-02-28T01:46:39;5.82;;;1.67;;
33862;SDS011;20158;51.436;-2.742;2023-02-28T01:49:09;3.08;;;1.58;;
33862;SDS011;20158;51.436;-2.742;2023-02-28T01:51:41;4.15;;;1.98;;
33862;SDS011;20158;51.436;-2.742;2023-02-28T01:54:16;3.35;;;1.70;;
33862;SDS011;20158;51.436;-2.742;2023-02-28T01:56:47;2.47;;;1.30;;
33862;SDS011;20158;51.436;-2.742;2023-02-28T01:59:27;4.20;;;2.03;;
33862;SDS011;20158;51.436;-2.742;2023-02-28T02:02:05;2.50;;;1.50;;
33862;SDS011;20158;51.436;-2.742;2023-02-28T02:04:34;5.30;;;1.58;;
33862;SDS011;20158;51.436;-2.742;2023-02-28T02:07:07;3.25;;;1.38;;
33862;SDS011;20158;51.436;-2.742;2023-02-28T02:09:34;3.83;;;1.65;;
33862;SDS011;20158;51.436;-2.742;2023-02-28T02:12:00;4.50;;;1.52;;
33862;SDS011;20158;51.436;-2.742;2023-02-28T02:14:40;7.22;;;3.08;;
33862;SDS011;20158;51.436;-2.742;2023-02-28T02:17:26;4.22;;;1.42;;
33862;SDS011;20158;51.436;-2.742;2023-02-28T02:25:53;1.88;;;1.40;;
33862;SDS011;20158;51.436;-2.742;2023-02-28T02:37:05;4.10;;;1.73;;
33862;SDS011;20158;51.436;-2.742;2023-02-28T02:39:44;2.65;;;1.80;;
33862;SDS011;20158;51.436;-2.742;2023-02-28T02:43:06;3.58;;;1.77;;
33862;SDS011;20158;51.436;-2.742;2023-02-28T02:47:53;2.40;;;1.65;;
33862;SDS011;20158;51.436;-2.742;2023-02-28T02:50:25;6.53;;;2.25;;
33862;SDS011;20158;51.436;-2.742;2023-02-28T02:55:27;2.42;;;1.70;;
33862;SDS011;20158;51.436;-2.742;2023-02-28T02:57:58;3.40;;;2.00;;
33862;SDS011;20158;51.436;-2.742;2023-02-28T03:00:33;5.03;;;1.65;;
33862;SDS011;20158;51.436;-2.742;2023-02-28T03:03:02;3.00;;;1.90;;
33862;SDS011;20158;51.436;-2.742;2023-02-28T03:05:30;3.67;;;2.03;;
33862;SDS011;20158;51.436;-2.742;2023-02-28T03:08:04;3.03;;;1.60;;
33862;SDS011;20158;51.436;-2.742;2023-02-28T03:10:38;5.50;;;2.40;;
33862;SDS011;20158;51.436;-2.742;2023-02-28T03:13:11;3.67;;;1.92;;
33862;SDS011;20158;51.436;-2.742;2023-02-28T03:21:24;3.15;;;1.85;;
33862;SDS011;20158;51.436;-2.742;2023-02-28T03:26:40;4.32;;;1.80;;
33862;SDS011;20158;51.436;-2.742;2023-02-28T03:31:44;3.55;;;1.77;;
33862;SDS011;20158;51.436;-2.742;2023-02-28T03:34:26;2.40;;;1.90;;
33862;SDS011;20158;51.436;-2.742;2023-02-28T03:37:02;3.22;;;2.10;;
33862;SDS011;20158;51.436;-2.742;2023-02-28T03:39:37;2.08;;;1.88;;
33862;SDS011;20158;51.436;-2.742;2023-02-28T03:42:12;5.07;;;2.45;;
33862;SDS011;20158;51.436;-2.742;2023-02-28T03:44:45;4.20;;;1.88;;
33862;SDS011;20158;51.436;-2.742;2023-02-28T03:49:59;4.15;;;2.20;;
33862;SDS011;20158;51.436;-2.742;2023-02-28T03:52:33;3.50;;;2.10;;
33862;SDS011;20158;51.436;-2.742;2023-02-28T03:55:04;2.25;;;2.05;;
33862;SDS011;20158;51.436;-2.742;2023-02-28T04:00:19;3.45;;;2.28;;
33862;SDS011;20158;51.436;-2.742;2023-02-28T04:02:53;3.00;;;1.95;;
33862;SDS011;20158;51.436;-2.742;2023-02-28T04:05:20;5.20;;;2.58;;
33862;SDS011;20158;51.436;-2.742;2023-02-28T04:07:47;3.80;;;2.50;;
33862;SDS011;20158;51.436;-2.742;2023-02-28T04:10:13;2.97;;;2.55;;
33862;SDS011;20158;51.436;-2.742;2023-02-28T04:12:40;4.88;;;3.53;;
33862;SDS011;20158;51.436;-2.742;2023-02-28T04:15:07;2.75;;;2.55;;
33862;SDS011;20158;51.436;-2.742;2023-02-28T04:17:33;5.28;;;3.33;;
33862;SDS011;20158;51.436;-2.742;2023-02-28T04:19:59;6.65;;;3.00;;
33862;SDS011;20158;51.436;-2.742;2023-02-28T04:22:25;3.30;;;2.60;;
33862;SDS011;20158;51.436;-2.742;2023-02-28T04:24:51;4.15;;;2.70;;
33862;SDS011;20158;51.436;-2.742;2023-02-28T04:27:20;4.72;;;3.22;;
33862;SDS011;20158;51.436;-2.742;2023-02-28T04:29:46;3.47;;;3.03;;
33862;SDS011;20158;51.436;-2.742;2023-02-28T04:32:12;3.85;;;3.53;;
33862;SDS011;20158;51.436;-2.742;2023-02-28T04:34:38;4.25;;;3.65;;
33862;SDS011;20158;51.436;-2.742;2023-02-28T04:37:04;4.65;;;3.35;;
33862;SDS011;20158;51.436;-2.742;2023-02-28T04:39:34;4.50;;;4.10;;
33862;SDS011;20158;51.436;-2.742;2023-02-28T04:42:01;4.47;;;4.00;;
33862;SDS011;20158;51.436;-2.742;2023-02-28T04:44:27;4.60;;;4.20;;
33862;SDS011;20158;51.436;-2.742;2023-02-28T04:46:53;8.35;;;5.13;;
33862;SDS011;20158;51.436;-2.742;2023-02-28T04:49:18;4.88;;;4.40;;
33862;SDS011;20158;51.436;-2.742;2023-02-28T04:51:44;5.80;;;5.25;;
33862;SDS011;20158;51.436;-2.742;2023-02-28T04:54:10;4.88;;;4.10;;
33862;SDS011;20158;51.436;-2.742;2023-02-28T04:56:36;5.35;;;4.53;;
33862;SDS011;20158;51.436;-2.742;2023-02-28T04:59:03;5.15;;;4.68;;
33862;SDS011;20158;51.436;-2.742;2023-02-28T05:01:30;5.38;;;4.75;;
33862;SDS011;20158;51.436;-2.742;2023-02-28T05:03:58;6.93;;;4.60;;
33862;SDS011;20158;51.436;-2.742;2023-02-28T05:06:27;6.18;;;5.32;;
33862;SDS011;20158;51.436;-2.742;2023-02-28T05:08:55;7.30;;;5.32;;
33862;SDS011;20158;51.436;-2.742;2023-02-28T05:11:23;6.10;;;4.32;;
33862;SDS011;20158;51.436;-2.742;2023-02-28T05:14:05;5.25;;;4.45;;
33862;SDS011;20158;51.436;-2.742;2023-02-28T05:16:40;4.63;;;4.18;;
33862;SDS011;20158;51.436;-2.742;2023-02-28T05:19:06;5.15;;;4.43;;
33862;SDS011;20158;51.436;-2.742;2023-02-28T05:21:33;5.30;;;4.47;;
33862;SDS011;20158;51.436;-2.742;2023-02-28T05:24:01;5.32;;;4.85;;
33862;SDS011;20158;51.436;-2.742;2023-02-28T05:26:29;4.35;;;3.95;;
33862;SDS011;20158;51.436;-2.742;2023-02-28T05:28:55;6.18;;;4.30;;
33862;SDS011;20158;51.436;-2.742;2023-02-28T05:31:22;6.85;;;5.03;;
33862;SDS011;20158;51.436;-2.742;2023-02-28T05:33:48;5.47;;;4.45;;
33862;SDS011;20158;51.436;-2.742;2023-02-28T05:36:14;5.97;;;4.75;;
33862;SDS011;20158;51.436;-2.742;2023-02-28T05:38:40;6.25;;;4.85;;
33862;SDS011;20158;51.436;-2.742;2023-02-28T05:41:07;4.60;;;4.20;;
33862;SDS011;20158;51.436;-2.742;2023-02-28T05:43:35;5.65;;;4.70;;
33862;SDS011;20158;51.436;-2.742;2023-02-28T05:46:03;4.78;;;4.10;;
33862;SDS011;20158;51.436;-2.742;2023-02-28T05:48:31;6.63;;;4.68;;
33862;SDS011;20158;51.436;-2.742;2023-02-28T05:50:57;5.85;;;5.20;;
33862;SDS011;20158;51.436;-2.742;2023-02-28T05:53:23;5.50;;;4.45;;
33862;SDS011;20158;51.436;-2.742;2023-02-28T05:55:49;5.25;;;4.75;;
33862;SDS011;20158;51.436;-2.742;2023-02-28T05:58:15;5.10;;;4.38;;
33862;SDS011;20158;51.436;-2.742;2023-02-28T06:00:41;4.68;;;4.07;;
33862;SDS011;20158;51.436;-2.742;2023-02-28T06:03:07;6.43;;;4.80;;
33862;SDS011;20158;51.436;-2.742;2023-02-28T06:05:32;5.82;;;4.78;;
33862;SDS011;20158;51.436;-2.742;2023-02-28T06:07:58;4.78;;;4.38;;
33862;SDS011;20158;51.436;-2.742;2023-02-28T06:10:24;5.32;;;4.82;;
33862;SDS011;20158;51.436;-2.742;2023-02-28T06:12:50;5.45;;;4.93;;
33862;SDS011;20158;51.436;-2.742;2023-02-28T06:15:16;6.90;;;4.93;;
33862;SDS011;20158;51.436;-2.742;2023-02-28T06:17:43;6.05;;;5.35;;
33862;SDS011;20158;51.436;-2.742;2023-02-28T06:20:10;6.32;;;5.53;;
33862;SDS011;20158;51.436;-2.742;2023-02-28T06:22:38;5.78;;;5.15;;
33862;SDS011;20158;51.436;-2.742;2023-02-28T06:25:05;5.97;;;5.20;;
33862;SDS011;20158;51.436;-2.742;2023-02-28T06:27:32;6.43;;;5.80;;
33862;SDS011;20158;51.436;-2.742;2023-02-28T06:29:59;7.20;;;6.60;;
33862;SDS011;20158;51.436;-2.742;2023-02-28T06:32:25;6.15;;;5.55;;
33862;SDS011;20158;51.436;-2.742;2023-02-28T06:34:51;6.80;;;6.10;;
33862;SDS011;20158;51.436;-2.742;2023-02-28T06:37:17;6.68;;;5.97;;
33862;SDS011;20158;51.436;-2.742;2023-02-28T06:39:43;7.15;;;6.55;;
33862;SDS011;20158;51.436;-2.742;2023-02-28T06:42:09;7.68;;;6.68;;
33862;SDS011;20158;51.436;-2.742;2023-02-28T06:44:35;7.95;;;7.18;;
33862;SDS011;20158;51.436;-2.742;2023-02-28T06:47:01;8.20;;;7.40;;
33862;SDS011;20158;51.436;-2.742;2023-02-28T06:49:31;7.88;;;7.18;;
33862;SDS011;20158;51.436;-2.742;2023-02-28T06:51:58;8.00;;;7.25;;
33862;SDS011;20158;51.436;-2.742;2023-02-28T06:54:24;9.45;;;8.48;;
33862;SDS011;20158;51.436;-2.742;2023-02-28T06:56:50;11.10;;;8.77;;
33862;SDS011;20158;51.436;-2.742;2023-02-28T06:59:16;9.43;;;8.52;;
33862;SDS011;20158;51.436;-2.742;2023-02-28T07:01:42;11.15;;;9.40;;
33862;SDS011;20158;51.436;-2.742;2023-02-28T07:04:08;9.98;;;8.20;;
33862;SDS011;20158;51.436;-2.742;2023-02-28T07:06:34;14.90;;;8.93;;
33862;SDS011;20158;51.436;-2.742;2023-02-28T07:09:00;11.50;;;9.00;;
33862;SDS011;20158;51.436;-2.742;2023-02-28T07:11:27;17.13;;;9.48;;
33862;SDS011;20158;51.436;-2.742;2023-02-28T07:13:53;11.40;;;9.45;;
33862;SDS011;20158;51.436;-2.742;2023-02-28T07:16:20;13.43;;;9.95;;
33862;SDS011;20158;51.436;-2.742;2023-02-28T07:18:46;14.15;;;8.40;;
33862;SDS011;20158;51.436;-2.742;2023-02-28T07:21:12;13.07;;;8.85;;
33862;SDS011;20158;51.436;-2.742;2023-02-28T07:23:38;12.73;;;8.68;;
33862;SDS011;20158;51.436;-2.742;2023-02-28T07:26:06;13.63;;;7.68;;
33862;SDS011;20158;51.436;-2.742;2023-02-28T07:28:36;10.02;;;7.95;;
33862;SDS011;20158;51.436;-2.742;2023-02-28T07:31:04;9.73;;;7.15;;
33862;SDS011;20158;51.436;-2.742;2023-02-28T07:33:30;9.45;;;6.93;;
33862;SDS011;20158;51.436;-2.742;2023-02-28T07:36:03;11.05;;;7.00;;
33862;SDS011;20158;51.436;-2.742;2023-02-28T07:38:33;9.00;;;7.55;;
33862;SDS011;20158;51.436;-2.742;2023-02-28T07:41:00;7.68;;;6.95;;
33862;SDS011;20158;51.436;-2.742;2023-02-28T07:43:29;9.02;;;8.13;;
33862;SDS011;20158;51.436;-2.742;2023-02-28T07:46:00;10.73;;;7.15;;
33862;SDS011;20158;51.436;-2.742;2023-02-28T07:48:31;10.07;;;7.25;;
33862;SDS011;20158;51.436;-2.742;2023-02-28T07:50:57;7.82;;;6.90;;
33862;SDS011;20158;51.436;-2.742;2023-02-28T07:53:24;9.50;;;6.80;;
33862;SDS011;20158;51.436;-2.742;2023-02-28T07:55:51;8.18;;;7.43;;
33862;SDS011;20158;51.436;-2.742;2023-02-28T07:58:19;9.73;;;6.78;;
33862;SDS011;20158;51.436;-2.742;2023-02-28T08:00:45;12.98;;;7.95;;
33862;SDS011;20158;51.436;-2.742;2023-02-28T08:03:11;8.57;;;7.78;;
33862;SDS011;20158;51.436;-2.742;2023-02-28T08:05:41;11.27;;;7.80;;
33862;SDS011;20158;51.436;-2.742;2023-02-28T08:08:07;7.55;;;6.80;;
33862;SDS011;20158;51.436;-2.742;2023-02-28T08:10:33;8.40;;;7.50;;
33862;SDS011;20158;51.436;-2.742;2023-02-28T08:12:59;7.60;;;6.82;;
33862;SDS011;20158;51.436;-2.742;2023-02-28T08:15:25;7.97;;;7.18;;
33862;SDS011;20158;51.436;-2.742;2023-02-28T08:17:52;8.13;;;7.32;;
33862;SDS011;20158;51.436;-2.742;2023-02-28T08:20:18;9.10;;;7.68;;
33862;SDS011;20158;51.436;-2.742;2023-02-28T08:22:44;8.77;;;7.90;;
33862;SDS011;20158;51.436;-2.742;2023-02-28T08:25:10;9.32;;;8.43;;
33862;SDS011;20158;51.436;-2.742;2023-02-28T08:27:36;9.10;;;7.20;;
33862;SDS011;20158;51.436;-2.742;2023-02-28T08:30:02;8.30;;;7.50;;
33862;SDS011;20158;51.436;-2.742;2023-02-28T08:32:28;8.45;;;7.65;;
33862;SDS011;20158;51.436;-2.742;2023-02-28T08:34:54;8.35;;;7.43;;
33862;SDS011;20158;51.436;-2.742;2023-02-28T08:37:20;8.02;;;7.22;;
33862;SDS011;20158;51.436;-2.742;2023-02-28T08:39:46;6.93;;;6.22;;
33862;SDS011;20158;51.436;-2.742;2023-02-28T08:42:12;6.90;;;6.30;;
33862;SDS011;20158;51.436;-2.742;2023-02-28T08:44:38;7.55;;;6.85;;
33862;SDS011;20158;51.436;-2.742;2023-02-28T08:47:03;7.40;;;6.63;;
33862;SDS011;20158;51.436;-2.742;2023-02-28T08:49:29;7.15;;;6.45;;
33862;SDS011;20158;51.436;-2.742;2023-02-28T08:51:55;6.38;;;5.78;;
33862;SDS011;20158;51.436;-2.742;2023-02-28T08:54:22;8.30;;;6.47;;
33862;SDS011;20158;51.436;-2.742;2023-02-28T08:56:48;6.97;;;6.18;;
33862;SDS011;20158;51.436;-2.742;2023-02-28T08:59:15;7.00;;;6.40;;
33862;SDS011;20158;51.436;-2.742;2023-02-28T09:01:41;6.85;;;6.15;;
33862;SDS011;20158;51.436;-2.742;2023-02-28T09:04:08;7.35;;;6.65;;
33862;SDS011;20158;51.436;-2.742;2023-02-28T09:06:36;8.27;;;5.95;;
33862;SDS011;20158;51.436;-2.742;2023-02-28T09:09:02;8.75;;;7.22;;
33862;SDS011;20158;51.436;-2.742;2023-02-28T09:11:31;8.35;;;6.65;;
33862;SDS011;20158;51.436;-2.742;2023-02-28T09:13:57;7.40;;;6.70;;
33862;SDS011;20158;51.436;-2.742;2023-02-28T09:16:25;7.40;;;6.70;;
33862;SDS011;20158;51.436;-2.742;2023-02-28T09:18:51;8.55;;;7.70;;
33862;SDS011;20158;51.436;-2.742;2023-02-28T09:21:18;9.52;;;7.70;;
33862;SDS011;20158;51.436;-2.742;2023-02-28T09:23:45;8.45;;;7.65;;
33862;SDS011;20158;51.436;-2.742;2023-02-28T09:26:13;8.23;;;7.35;;
33862;SDS011;20158;51.436;-2.742;2023-02-28T09:28:43;8.48;;;7.57;;
33862;SDS011;20158;51.436;-2.742;2023-02-28T09:31:11;10.90;;;8.70;;
33862;SDS011;20158;51.436;-2.742;2023-02-28T09:33:42;10.30;;;8.53;;
33862;SDS011;20158;51.436;-2.742;2023-02-28T09:36:08;8.88;;;8.07;;
33862;SDS011;20158;51.436;-2.742;2023-02-28T09:38:34;8.63;;;7.72;;
33862;SDS011;20158;51.436;-2.742;2023-02-28T09:41:01;8.75;;;7.95;;
33862;SDS011;20158;51.436;-2.742;2023-02-28T09:43:34;9.45;;;8.55;;
33862;SDS011;20158;51.436;-2.742;2023-02-28T09:48:48;8.38;;;7.60;;
33862;SDS011;20158;51.436;-2.742;2023-02-28T09:52:02;10.45;;;8.52;;
33862;SDS011;20158;51.436;-2.742;2023-02-28T09:54:27;10.10;;;8.68;;
33862;SDS011;20158;51.436;-2.742;2023-02-28T09:57:00;9.68;;;8.68;;
33862;SDS011;20158;51.436;-2.742;2023-02-28T10:02:07;9.20;;;8.20;;
33862;SDS011;20158;51.436;-2.742;2023-02-28T10:04:58;10.57;;;9.57;;
33862;SDS011;20158;51.436;-2.742;2023-02-28T10:13:32;10.18;;;8.45;;
33862;SDS011;20158;51.436;-2.742;2023-02-28T10:15:58;9.73;;;8.30;;
33862;SDS011;20158;51.436;-2.742;2023-02-28T10:18:35;12.48;;;9.10;;
33862;SDS011;20158;51.436;-2.742;2023-02-28T10:21:21;9.57;;;8.65;;
33862;SDS011;20158;51.436;-2.742;2023-02-28T10:23:56;10.88;;;9.80;;
33862;SDS011;20158;51.436;-2.742;2023-02-28T10:26:28;10.43;;;8.95;;
33862;SDS011;20158;51.436;-2.742;2023-02-28T10:28:56;8.82;;;7.93;;
33862;SDS011;20158;51.436;-2.742;2023-02-28T10:31:22;9.10;;;8.20;;
33862;SDS011;20158;51.436;-2.742;2023-02-28T10:33:48;10.25;;;8.20;;
33862;SDS011;20158;51.436;-2.742;2023-02-28T10:36:16;8.63;;;7.82;;
33862;SDS011;20158;51.436;-2.742;2023-02-28T10:38:45;8.30;;;7.43;;
33862;SDS011;20158;51.436;-2.742;2023-02-28T10:43:40;8.43;;;7.63;;
33862;SDS011;20158;51.436;-2.742;2023-02-28T10:48:36;7.75;;;6.90;;
33862;SDS011;20158;51.436;-2.742;2023-02-28T10:51:12;8.00;;;7.22;;
33862;SDS011;20158;51.436;-2.742;2023-02-28T10:56:19;8.52;;;6.95;;
33862;SDS011;20158;51.436;-2.742;2023-02-28T10:58:57;7.75;;;6.95;;
33862;SDS011;20158;51.436;-2.742;2023-02-28T11:03:57;9.60;;;8.02;;
33862;SDS011;20158;51.436;-2.742;2023-02-28T11:06:29;8.38;;;7.57;;
33862;SDS011;20158;51.436;-2.742;2023-02-28T11:09:02;7.63;;;6.85;;
33862;SDS011;20158;51.436;-2.742;2023-02-28T11:11:43;7.97;;;7.00;;
33862;SDS011;20158;51.436;-2.742;2023-02-28T11:14:17;8.43;;;7.53;;
33862;SDS011;20158;51.436;-2.742;2023-02-28T11:19:16;8.30;;;7.50;;
33862;SDS011;20158;51.436;-2.742;2023-02-28T11:21:53;7.88;;;7.07;;
33862;SDS011;20158;51.436;-2.742;2023-02-28T11:24:23;7.88;;;7.07;;
33862;SDS011;20158;51.436;-2.742;2023-02-28T11:26:52;8.05;;;7.22;;
33862;SDS011;20158;51.436;-2.742;2023-02-28T11:34:37;8.15;;;7.32;;
33862;SDS011;20158;51.436;-2.742;2023-02-28T11:37:04;7.82;;;7.13;;
33862;SDS011;20158;51.436;-2.742;2023-02-28T11:39:35;7.75;;;6.93;;
33862;SDS011;20158;51.436;-2.742;2023-02-28T11:52:56;7.93;;;7.15;;
33862;SDS011;20158;51.436;-2.742;2023-02-28T11:55:45;8.18;;;6.80;;
33862;SDS011;20158;51.436;-2.742;2023-02-28T11:58:29;8.73;;;6.97;;
33862;SDS011;20158;51.436;-2.742;2023-02-28T12:06:55;8.05;;;6.72;;
33862;SDS011;20158;51.436;-2.742;2023-02-28T12:09:33;7.00;;;6.32;;
33862;SDS011;20158;51.436;-2.742;2023-02-28T12:17:48;6.15;;;5.55;;
33862;SDS011;20158;51.436;-2.742;2023-02-28T12:25:21;7.05;;;6.18;;
33862;SDS011;20158;51.436;-2.742;2023-02-28T12:28:09;7.00;;;6.30;;
33862;SDS011;20158;51.436;-2.742;2023-02-28T12:30:42;7.60;;;5.82;;
33862;SDS011;20158;51.436;-2.742;2023-02-28T12:33:16;7.05;;;6.00;;
33862;SDS011;20158;51.436;-2.742;2023-02-28T12:35:57;6.75;;;5.95;;
33862;SDS011;20158;51.436;-2.742;2023-02-28T12:38:29;6.93;;;6.32;;
33862;SDS011;20158;51.436;-2.742;2023-02-28T12:41:05;6.22;;;5.63;;
33862;SDS011;20158;51.436;-2.742;2023-02-28T12:43:44;6.68;;;6.07;;
33862;SDS011;20158;51.436;-2.742;2023-02-28T12:46:21;6.20;;;5.68;;
33862;SDS011;20158;51.436;-2.742;2023-02-28T12:48:53;5.47;;;4.95;;
33862;SDS011;20158;51.436;-2.742;2023-02-28T12:51:23;5.07;;;4.57;;
33862;SDS011;20158;51.436;-2.742;2023-02-28T13:08:24;5.50;;;4.70;;
33862;SDS011;20158;51.436;-2.742;2023-02-28T13:19:43;4.40;;;4.00;;
33862;SDS011;20158;51.436;-2.742;2023-02-28T13:22:20;4.25;;;3.85;;
33862;SDS011;20158;51.436;-2.742;2023-02-28T13:27:51;4.60;;;4.20;;
33862;SDS011;20158;51.436;-2.742;2023-02-28T13:36:01;5.63;;;4.05;;
33862;SDS011;20158;51.436;-2.742;2023-02-28T13:38:45;4.15;;;3.75;;
33862;SDS011;20158;51.436;-2.742;2023-02-28T14:08:05;3.65;;;3.33;;
33862;SDS011;20158;51.436;-2.742;2023-02-28T14:10:41;3.75;;;3.45;;
33862;SDS011;20158;51.436;-2.742;2023-02-28T14:18:26;3.75;;;3.42;;
33862;SDS011;20158;51.436;-2.742;2023-02-28T14:21:01;3.65;;;3.00;;
33862;SDS011;20158;51.436;-2.742;2023-02-28T14:31:51;3.20;;;2.90;;
33862;SDS011;20158;51.436;-2.742;2023-02-28T14:36:58;3.45;;;3.15;;
33862;SDS011;20158;51.436;-2.742;2023-02-28T14:39:27;3.15;;;2.85;;
33862;SDS011;20158;51.436;-2.742;2023-02-28T14:41:56;3.30;;;2.78;;
33862;SDS011;20158;51.436;-2.742;2023-02-28T14:44:28;4.35;;;3.28;;
33862;SDS011;20158;51.436;-2.742;2023-02-28T14:46:55;3.53;;;3.22;;
33862;SDS011;20158;51.436;-2.742;2023-02-28T14:49:27;3.45;;;3.00;;
33862;SDS011;20158;51.436;-2.742;2023-02-28T14:54:57;3.10;;;2.65;;
33862;SDS011;20158;51.436;-2.742;2023-02-28T15:00:10;4.55;;;3.22;;
33862;SDS011;20158;51.436;-2.742;2023-02-28T15:02:41;3.25;;;2.78;;
33862;SDS011;20158;51.436;-2.742;2023-02-28T15:07:46;3.33;;;2.83;;
33862;SDS011;20158;51.436;-2.742;2023-02-28T15:10:23;2.47;;;2.25;;
33862;SDS011;20158;51.436;-2.742;2023-02-28T15:13:07;14.98;;;3.67;;
33862;SDS011;20158;51.436;-2.742;2023-02-28T15:15:43;2.88;;;2.63;;
33862;SDS011;20158;51.436;-2.742;2023-02-28T15:18:24;2.67;;;2.28;;
33862;SDS011;20158;51.436;-2.742;2023-02-28T15:21:05;3.65;;;2.58;;
33862;SDS011;20158;51.436;-2.742;2023-02-28T15:23:34;4.50;;;2.75;;
33862;SDS011;20158;51.436;-2.742;2023-02-28T15:26:02;3.72;;;2.45;;
33862;SDS011;20158;51.436;-2.742;2023-02-28T15:28:29;2.38;;;2.17;;
33862;SDS011;20158;51.436;-2.742;2023-02-28T15:33:27;3.65;;;2.65;;
33862;SDS011;20158;51.436;-2.742;2023-02-28T15:36:12;2.67;;;1.83;;
33862;SDS011;20158;51.436;-2.742;2023-02-28T15:38:41;2.08;;;1.88;;
33862;SDS011;20158;51.436;-2.742;2023-02-28T15:41:22;3.30;;;2.38;;
33862;SDS011;20158;51.436;-2.742;2023-02-28T15:46:43;2.65;;;2.15;;
33862;SDS011;20158;51.436;-2.742;2023-02-28T15:49:19;2.75;;;2.55;;
33862;SDS011;20158;51.436;-2.742;2023-02-28T15:51:46;2.67;;;2.05;;
33862;SDS011;20158;51.436;-2.742;2023-02-28T15:54:18;2.45;;;2.17;;
33862;SDS011;20158;51.436;-2.742;2023-02-28T15:56:52;3.30;;;2.35;;
33862;SDS011;20158;51.436;-2.742;2023-02-28T15:59:21;2.58;;;2.38;;
33862;SDS011;20158;51.436;-2.742;2023-02-28T16:02:03;2.88;;;2.50;;
33862;SDS011;20158;51.436;-2.742;2023-02-28T16:07:28;2.50;;;2.30;;
33862;SDS011;20158;51.436;-2.742;2023-02-28T16:09:54;1.95;;;1.85;;
33862;SDS011;20158;51.436;-2.742;2023-02-28T16:12:22;2.42;;;2.22;;
33862;SDS011;20158;51.436;-2.742;2023-02-28T16:14:52;2.60;;;2.40;;
33862;SDS011;20158;51.436;-2.742;2023-02-28T16:17:20;2.08;;;1.70;;
33862;SDS011;20158;51.436;-2.742;2023-02-28T16:19:49;2.60;;;2.40;;
33862;SDS011;20158;51.436;-2.742;2023-02-28T16:22:15;2.40;;;2.20;;
33862;SDS011;20158;51.436;-2.742;2023-02-28T16:24:41;3.05;;;2.28;;
33862;SDS011;20158;51.436;-2.742;2023-02-28T16:27:10;2.10;;;1.90;;
33862;SDS011;20158;51.436;-2.742;2023-02-28T16:29:42;2.25;;;2.05;;
33862;SDS011;20158;51.436;-2.742;2023-02-28T16:32:11;2.60;;;2.40;;
33862;SDS011;20158;51.436;-2.742;2023-02-28T16:34:40;2.15;;;1.83;;
33862;SDS011;20158;51.436;-2.742;2023-02-28T16:37:11;3.13;;;2.17;;
33862;SDS011;20158;51.436;-2.742;2023-02-28T16:39:42;2.35;;;1.88;;
33862;SDS011;20158;51.436;-2.742;2023-02-28T16:42:20;2.60;;;1.95;;
33862;SDS011;20158;51.436;-2.742;2023-02-28T16:44:52;2.08;;;1.92;;
33862;SDS011;20158;51.436;-2.742;2023-02-28T16:47:19;2.33;;;2.13;;
33862;SDS011;20158;51.436;-2.742;2023-02-28T16:49:45;2.83;;;2.10;;
33862;SDS011;20158;51.436;-2.742;2023-02-28T16:52:13;1.90;;;1.60;;
33862;SDS011;20158;51.436;-2.742;2023-02-28T16:54:40;2.10;;;1.88;;
33862;SDS011;20158;51.436;-2.742;2023-02-28T16:57:08;1.80;;;1.70;;
33862;SDS011;20158;51.436;-2.742;2023-02-28T16:59:47;2.03;;;1.83;;
33862;SDS011;20158;51.436;-2.742;2023-02-28T17:02:14;2.67;;;1.90;;
33862;SDS011;20158;51.436;-2.742;2023-02-28T17:04:41;2.05;;;1.85;;
33862;SDS011;20158;51.436;-2.742;2023-02-28T17:07:11;4.78;;;2.10;;
33862;SDS011;20158;51.436;-2.742;2023-02-28T17:09:38;1.65;;;1.55;;
33862;SDS011;20158;51.436;-2.742;2023-02-28T17:12:04;2.30;;;1.70;;
33862;SDS011;20158;51.436;-2.742;2023-02-28T17:14:30;2.22;;;2.03;;
33862;SDS011;20158;51.436;-2.742;2023-02-28T17:16:56;2.28;;;1.70;;
33862;SDS011;20158;51.436;-2.742;2023-02-28T17:19:22;1.90;;;1.70;;
33862;SDS011;20158;51.436;-2.742;2023-02-28T17:21:48;2.88;;;1.45;;
33862;SDS011;20158;51.436;-2.742;2023-02-28T17:24:14;2.33;;;1.45;;
33862;SDS011;20158;51.436;-2.742;2023-02-28T17:26:40;3.50;;;2.22;;
33862;SDS011;20158;51.436;-2.742;2023-02-28T17:29:14;1.98;;;1.77;;
33862;SDS011;20158;51.436;-2.742;2023-02-28T17:31:42;2.95;;;2.47;;
33862;SDS011;20158;51.436;-2.742;2023-02-28T17:34:09;1.70;;;1.60;;
33862;SDS011;20158;51.436;-2.742;2023-02-28T17:36:35;2.55;;;1.80;;
33862;SDS011;20158;51.436;-2.742;2023-02-28T17:39:02;3.55;;;1.65;;
33862;SDS011;20158;51.436;-2.742;2023-02-28T17:41:34;3.00;;;1.58;;
33862;SDS011;20158;51.436;-2.742;2023-02-28T17:44:00;2.90;;;2.25;;
33862;SDS011;20158;51.436;-2.742;2023-02-28T17:46:26;2.80;;;1.98;;
33862;SDS011;20158;51.436;-2.742;2023-02-28T17:48:53;3.15;;;2.13;;
33862;SDS011;20158;51.436;-2.742;2023-02-28T17:51:20;2.60;;;1.88;;